Saginaw, Minnesota
Current Conditions -  °F | °C
As of 10:55 AM on Saturday 20 Dec 2014 (Local Time) from KDLH Reporting Station
Haze Haze  
Wind Chill: 19°   Ceiling: 700
Heat Index: 28°   Visibility: 4mi
Dew Point: 24°   Wind: 10mph
Humidity: 85%   Direction: 170°S
Pressure: 30.09"   Gusts: NA
Location:  46.86°N, 92.45°W
Report Text: KDLH 201655Z 17009KT 4SM BR OVC007 M02/M04 A3009 RMK AO2 SNE15 SLP214 P0000 T10221044
Loading
Personal Weather Stations






























Interactive Weather Map New forecast layout! Learn more

10-Day Weather Forecast

Advertisements
Track Severe Weather on mobile